sensor_id;sensor_type;location;lat;lon;timestamp;P1;durP1;ratioP1;P2;durP2;ratioP2
7263;SDS011;3673;52.480;13.348;2023-10-09T00:01:02;3.45;;;2.10;;
7263;SDS011;3673;52.480;13.348;2023-10-09T00:03:39;2.88;;;1.55;;
7263;SDS011;3673;52.480;13.348;2023-10-09T00:06:07;4.40;;;1.92;;
7263;SDS011;3673;52.480;13.348;2023-10-09T00:08:35;3.00;;;2.10;;
7263;SDS011;3673;52.480;13.348;2023-10-09T00:11:04;3.28;;;2.00;;
7263;SDS011;3673;52.480;13.348;2023-10-09T00:13:41;3.55;;;2.42;;
7263;SDS011;3673;52.480;13.348;2023-10-09T00:16:15;5.00;;;2.40;;
7263;SDS011;3673;52.480;13.348;2023-10-09T00:18:49;2.92;;;2.13;;
7263;SDS011;3673;52.480;13.348;2023-10-09T00:21:16;6.95;;;2.53;;
7263;SDS011;3673;52.480;13.348;2023-10-09T00:23:45;3.88;;;2.35;;
7263;SDS011;3673;52.480;13.348;2023-10-09T00:26:19;3.47;;;2.20;;
7263;SDS011;3673;52.480;13.348;2023-10-09T00:28:46;6.30;;;1.88;;
7263;SDS011;3673;52.480;13.348;2023-10-09T00:31:16;4.22;;;2.38;;
7263;SDS011;3673;52.480;13.348;2023-10-09T00:33:52;4.93;;;2.63;;
7263;SDS011;3673;52.480;13.348;2023-10-09T00:36:20;3.38;;;2.08;;
7263;SDS011;3673;52.480;13.348;2023-10-09T00:38:53;3.28;;;2.17;;
7263;SDS011;3673;52.480;13.348;2023-10-09T00:41:20;7.18;;;2.50;;
7263;SDS011;3673;52.480;13.348;2023-10-09T00:43:49;4.13;;;2.38;;
7263;SDS011;3673;52.480;13.348;2023-10-09T00:46:18;4.53;;;2.20;;
7263;SDS011;3673;52.480;13.348;2023-10-09T00:48:51;3.58;;;2.03;;
7263;SDS011;3673;52.480;13.348;2023-10-09T00:51:22;5.88;;;2.42;;
7263;SDS011;3673;52.480;13.348;2023-10-09T00:53:52;5.80;;;2.08;;
7263;SDS011;3673;52.480;13.348;2023-10-09T00:56:24;3.70;;;2.28;;
7263;SDS011;3673;52.480;13.348;2023-10-09T00:59:04;4.18;;;2.28;;
7263;SDS011;3673;52.480;13.348;2023-10-09T01:01:34;4.57;;;2.50;;
7263;SDS011;3673;52.480;13.348;2023-10-09T01:04:06;5.88;;;2.60;;
7263;SDS011;3673;52.480;13.348;2023-10-09T01:06:35;4.43;;;2.28;;
7263;SDS011;3673;52.480;13.348;2023-10-09T01:09:08;4.03;;;2.42;;
7263;SDS011;3673;52.480;13.348;2023-10-09T01:11:37;4.65;;;2.28;;
7263;SDS011;3673;52.480;13.348;2023-10-09T01:14:13;4.72;;;2.70;;
7263;SDS011;3673;52.480;13.348;2023-10-09T01:16:41;4.95;;;2.67;;
7263;SDS011;3673;52.480;13.348;2023-10-09T01:19:09;3.72;;;2.38;;
7263;SDS011;3673;52.480;13.348;2023-10-09T01:21:44;7.03;;;2.53;;
7263;SDS011;3673;52.480;13.348;2023-10-09T01:24:14;4.63;;;2.53;;
7263;SDS011;3673;52.480;13.348;2023-10-09T01:26:41;5.03;;;3.00;;
7263;SDS011;3673;52.480;13.348;2023-10-09T01:29:12;3.78;;;2.47;;
7263;SDS011;3673;52.480;13.348;2023-10-09T01:31:44;3.80;;;2.40;;
7263;SDS011;3673;52.480;13.348;2023-10-09T01:34:19;7.45;;;2.58;;
7263;SDS011;3673;52.480;13.348;2023-10-09T01:36:51;4.18;;;2.50;;
7263;SDS011;3673;52.480;13.348;2023-10-09T01:39:21;4.72;;;2.55;;
7263;SDS011;3673;52.480;13.348;2023-10-09T01:41:51;4.35;;;2.72;;
7263;SDS011;3673;52.480;13.348;2023-10-09T01:44:24;7.00;;;3.10;;
7263;SDS011;3673;52.480;13.348;2023-10-09T01:46:55;5.63;;;2.53;;
7263;SDS011;3673;52.480;13.348;2023-10-09T01:49:23;3.60;;;2.40;;
7263;SDS011;3673;52.480;13.348;2023-10-09T01:51:56;6.72;;;2.50;;
7263;SDS011;3673;52.480;13.348;2023-10-09T01:54:29;5.43;;;2.30;;
7263;SDS011;3673;52.480;13.348;2023-10-09T01:57:02;7.60;;;2.20;;
7263;SDS011;3673;52.480;13.348;2023-10-09T01:59:34;3.78;;;2.38;;
7263;SDS011;3673;52.480;13.348;2023-10-09T02:02:03;4.82;;;2.40;;
7263;SDS011;3673;52.480;13.348;2023-10-09T02:04:52;4.07;;;2.58;;
7263;SDS011;3673;52.480;13.348;2023-10-09T02:07:28;3.65;;;2.33;;
7263;SDS011;3673;52.480;13.348;2023-10-09T02:10:07;3.88;;;2.25;;
7263;SDS011;3673;52.480;13.348;2023-10-09T02:12:46;7.10;;;2.63;;
7263;SDS011;3673;52.480;13.348;2023-10-09T02:15:17;4.07;;;2.42;;
7263;SDS011;3673;52.480;13.348;2023-10-09T02:20:42;5.78;;;3.10;;
7263;SDS011;3673;52.480;13.348;2023-10-09T02:23:11;5.22;;;3.40;;
7263;SDS011;3673;52.480;13.348;2023-10-09T02:25:40;4.80;;;2.47;;
7263;SDS011;3673;52.480;13.348;2023-10-09T02:28:08;3.63;;;2.22;;
7263;SDS011;3673;52.480;13.348;2023-10-09T02:30:42;5.13;;;3.22;;
7263;SDS011;3673;52.480;13.348;2023-10-09T02:33:12;5.13;;;2.90;;
7263;SDS011;3673;52.480;13.348;2023-10-09T02:35:43;5.72;;;2.85;;
7263;SDS011;3673;52.480;13.348;2023-10-09T02:38:16;5.30;;;3.38;;
7263;SDS011;3673;52.480;13.348;2023-10-09T02:40:49;7.13;;;3.20;;
7263;SDS011;3673;52.480;13.348;2023-10-09T02:43:45;6.63;;;3.05;;
7263;SDS011;3673;52.480;13.348;2023-10-09T02:46:15;4.95;;;2.58;;
7263;SDS011;3673;52.480;13.348;2023-10-09T02:48:43;6.10;;;3.20;;
7263;SDS011;3673;52.480;13.348;2023-10-09T02:51:15;9.15;;;3.20;;
7263;SDS011;3673;52.480;13.348;2023-10-09T02:53:58;4.50;;;3.15;;
7263;SDS011;3673;52.480;13.348;2023-10-09T02:56:44;4.85;;;3.15;;
7263;SDS011;3673;52.480;13.348;2023-10-09T02:59:12;4.05;;;2.65;;
7263;SDS011;3673;52.480;13.348;2023-10-09T03:01:40;5.95;;;3.10;;
7263;SDS011;3673;52.480;13.348;2023-10-09T03:04:07;7.50;;;3.97;;
7263;SDS011;3673;52.480;13.348;2023-10-09T03:06:36;5.40;;;3.20;;
7263;SDS011;3673;52.480;13.348;2023-10-09T03:09:08;5.18;;;3.22;;
7263;SDS011;3673;52.480;13.348;2023-10-09T03:11:44;4.63;;;3.30;;
7263;SDS011;3673;52.480;13.348;2023-10-09T03:14:13;5.53;;;3.13;;
7263;SDS011;3673;52.480;13.348;2023-10-09T03:16:40;4.82;;;3.35;;
7263;SDS011;3673;52.480;13.348;2023-10-09T03:19:08;7.90;;;3.67;;
7263;SDS011;3673;52.480;13.348;2023-10-09T03:21:36;7.53;;;3.50;;
7263;SDS011;3673;52.480;13.348;2023-10-09T03:24:03;8.98;;;3.65;;
7263;SDS011;3673;52.480;13.348;2023-10-09T03:26:31;6.60;;;3.25;;
7263;SDS011;3673;52.480;13.348;2023-10-09T03:29:00;5.15;;;3.22;;
7263;SDS011;3673;52.480;13.348;2023-10-09T03:31:27;7.13;;;3.42;;
7263;SDS011;3673;52.480;13.348;2023-10-09T03:33:56;5.03;;;3.15;;
7263;SDS011;3673;52.480;13.348;2023-10-09T03:36:23;5.22;;;2.78;;
7263;SDS011;3673;52.480;13.348;2023-10-09T03:38:51;5.88;;;3.17;;
7263;SDS011;3673;52.480;13.348;2023-10-09T03:41:19;4.75;;;2.97;;
7263;SDS011;3673;52.480;13.348;2023-10-09T03:43:47;8.82;;;3.58;;
7263;SDS011;3673;52.480;13.348;2023-10-09T03:46:15;6.10;;;3.42;;
7263;SDS011;3673;52.480;13.348;2023-10-09T03:48:46;6.35;;;3.13;;
7263;SDS011;3673;52.480;13.348;2023-10-09T03:51:13;4.28;;;3.20;;
7263;SDS011;3673;52.480;13.348;2023-10-09T03:53:46;8.13;;;3.28;;
7263;SDS011;3673;52.480;13.348;2023-10-09T03:56:14;10.77;;;4.13;;
7263;SDS011;3673;52.480;13.348;2023-10-09T03:58:43;9.20;;;3.80;;
7263;SDS011;3673;52.480;13.348;2023-10-09T04:01:11;9.27;;;3.92;;
7263;SDS011;3673;52.480;13.348;2023-10-09T04:03:47;8.23;;;3.47;;
7263;SDS011;3673;52.480;13.348;2023-10-09T04:06:15;8.45;;;3.70;;
7263;SDS011;3673;52.480;13.348;2023-10-09T04:08:43;8.07;;;3.80;;
7263;SDS011;3673;52.480;13.348;2023-10-09T04:11:14;7.90;;;3.45;;
7263;SDS011;3673;52.480;13.348;2023-10-09T04:13:47;7.80;;;3.25;;
7263;SDS011;3673;52.480;13.348;2023-10-09T04:16:18;6.38;;;3.28;;
7263;SDS011;3673;52.480;13.348;2023-10-09T04:19:00;9.02;;;3.90;;
7263;SDS011;3673;52.480;13.348;2023-10-09T04:21:35;6.88;;;3.40;;
7263;SDS011;3673;52.480;13.348;2023-10-09T04:24:02;8.57;;;3.10;;
7263;SDS011;3673;52.480;13.348;2023-10-09T04:26:47;3.63;;;2.78;;
7263;SDS011;3673;52.480;13.348;2023-10-09T04:29:21;4.55;;;3.15;;
7263;SDS011;3673;52.480;13.348;2023-10-09T04:31:54;9.13;;;4.43;;
7263;SDS011;3673;52.480;13.348;2023-10-09T04:34:21;6.55;;;3.13;;
7263;SDS011;3673;52.480;13.348;2023-10-09T04:36:48;3.25;;;2.47;;
7263;SDS011;3673;52.480;13.348;2023-10-09T04:39:16;6.82;;;3.05;;
7263;SDS011;3673;52.480;13.348;2023-10-09T04:42:01;4.50;;;3.08;;
7263;SDS011;3673;52.480;13.348;2023-10-09T04:45:01;7.47;;;4.78;;
7263;SDS011;3673;52.480;13.348;2023-10-09T04:47:48;4.97;;;3.00;;
7263;SDS011;3673;52.480;13.348;2023-10-09T04:50:31;6.93;;;3.10;;
7263;SDS011;3673;52.480;13.348;2023-10-09T04:53:23;3.88;;;2.97;;
7263;SDS011;3673;52.480;13.348;2023-10-09T04:58:29;4.75;;;2.65;;
7263;SDS011;3673;52.480;13.348;2023-10-09T05:01:04;4.85;;;3.00;;
7263;SDS011;3673;52.480;13.348;2023-10-09T05:03:39;6.97;;;3.40;;
7263;SDS011;3673;52.480;13.348;2023-10-09T05:06:09;7.03;;;3.42;;
7263;SDS011;3673;52.480;13.348;2023-10-09T05:09:03;4.97;;;3.28;;
7263;SDS011;3673;52.480;13.348;2023-10-09T05:11:38;6.53;;;3.30;;
7263;SDS011;3673;52.480;13.348;2023-10-09T05:14:19;5.13;;;3.47;;
7263;SDS011;3673;52.480;13.348;2023-10-09T05:17:05;4.00;;;2.78;;
7263;SDS011;3673;52.480;13.348;2023-10-09T05:19:33;7.45;;;3.00;;
7263;SDS011;3673;52.480;13.348;2023-10-09T05:22:07;5.22;;;2.95;;
7263;SDS011;3673;52.480;13.348;2023-10-09T05:24:42;5.07;;;3.20;;
7263;SDS011;3673;52.480;13.348;2023-10-09T05:27:12;3.65;;;3.15;;
7263;SDS011;3673;52.480;13.348;2023-10-09T05:29:44;3.78;;;2.70;;
7263;SDS011;3673;52.480;13.348;2023-10-09T05:32:24;5.53;;;3.17;;
7263;SDS011;3673;52.480;13.348;2023-10-09T05:34:56;7.22;;;3.10;;
7263;SDS011;3673;52.480;13.348;2023-10-09T05:37:40;5.28;;;3.10;;
7263;SDS011;3673;52.480;13.348;2023-10-09T05:40:09;6.65;;;3.63;;
7263;SDS011;3673;52.480;13.348;2023-10-09T05:42:48;5.28;;;3.10;;
7263;SDS011;3673;52.480;13.348;2023-10-09T05:45:24;7.63;;;3.80;;
7263;SDS011;3673;52.480;13.348;2023-10-09T05:48:18;4.90;;;3.67;;
7263;SDS011;3673;52.480;13.348;2023-10-09T05:51:04;7.60;;;3.15;;
7263;SDS011;3673;52.480;13.348;2023-10-09T05:53:44;6.55;;;3.42;;
7263;SDS011;3673;52.480;13.348;2023-10-09T05:56:29;7.18;;;4.10;;
7263;SDS011;3673;52.480;13.348;2023-10-09T05:59:13;9.15;;;3.70;;
7263;SDS011;3673;52.480;13.348;2023-10-09T06:01:58;7.57;;;4.25;;
7263;SDS011;3673;52.480;13.348;2023-10-09T06:05:13;8.88;;;3.40;;
7263;SDS011;3673;52.480;13.348;2023-10-09T06:07:55;7.88;;;3.72;;
7263;SDS011;3673;52.480;13.348;2023-10-09T06:10:32;10.77;;;4.55;;
7263;SDS011;3673;52.480;13.348;2023-10-09T06:13:08;7.03;;;4.75;;
7263;SDS011;3673;52.480;13.348;2023-10-09T06:15:49;5.53;;;3.22;;
7263;SDS011;3673;52.480;13.348;2023-10-09T06:18:44;7.03;;;3.30;;
7263;SDS011;3673;52.480;13.348;2023-10-09T06:21:18;5.25;;;3.10;;
7263;SDS011;3673;52.480;13.348;2023-10-09T06:24:26;5.93;;;3.45;;
7263;SDS011;3673;52.480;13.348;2023-10-09T06:26:59;6.88;;;4.05;;
7263;SDS011;3673;52.480;13.348;2023-10-09T06:29:38;22.15;;;5.80;;
7263;SDS011;3673;52.480;13.348;2023-10-09T06:32:16;8.27;;;3.88;;
7263;SDS011;3673;52.480;13.348;2023-10-09T06:35:02;6.97;;;3.50;;
7263;SDS011;3673;52.480;13.348;2023-10-09T06:37:42;9.27;;;3.45;;
7263;SDS011;3673;52.480;13.348;2023-10-09T06:40:24;5.75;;;3.10;;
7263;SDS011;3673;52.480;13.348;2023-10-09T06:43:09;3.97;;;3.22;;
7263;SDS011;3673;52.480;13.348;2023-10-09T06:45:41;8.05;;;3.40;;
7263;SDS011;3673;52.480;13.348;2023-10-09T06:48:19;8.20;;;3.65;;
7263;SDS011;3673;52.480;13.348;2023-10-09T06:51:05;6.50;;;3.65;;
7263;SDS011;3673;52.480;13.348;2023-10-09T06:53:37;4.78;;;3.50;;
7263;SDS011;3673;52.480;13.348;2023-10-09T06:56:24;5.55;;;3.50;;
7263;SDS011;3673;52.480;13.348;2023-10-09T06:59:14;6.30;;;3.20;;
7263;SDS011;3673;52.480;13.348;2023-10-09T07:01:46;4.50;;;3.30;;
7263;SDS011;3673;52.480;13.348;2023-10-09T07:04:33;6.80;;;4.00;;
7263;SDS011;3673;52.480;13.348;2023-10-09T07:07:21;4.80;;;3.38;;
7263;SDS011;3673;52.480;13.348;2023-10-09T07:09:49;5.32;;;3.50;;
7263;SDS011;3673;52.480;13.348;2023-10-09T07:12:36;8.25;;;4.95;;
7263;SDS011;3673;52.480;13.348;2023-10-09T07:15:09;3.72;;;2.63;;
7263;SDS011;3673;52.480;13.348;2023-10-09T07:17:53;5.05;;;3.40;;
7263;SDS011;3673;52.480;13.348;2023-10-09T07:20:20;5.20;;;3.17;;
7263;SDS011;3673;52.480;13.348;2023-10-09T07:23:02;5.03;;;3.88;;
7263;SDS011;3673;52.480;13.348;2023-10-09T07:25:42;5.10;;;3.45;;
7263;SDS011;3673;52.480;13.348;2023-10-09T07:28:25;4.15;;;3.50;;
7263;SDS011;3673;52.480;13.348;2023-10-09T07:31:01;8.18;;;4.40;;
7263;SDS011;3673;52.480;13.348;2023-10-09T07:33:29;11.73;;;5.00;;
7263;SDS011;3673;52.480;13.348;2023-10-09T07:36:31;4.65;;;3.83;;
7263;SDS011;3673;52.480;13.348;2023-10-09T07:39:02;7.45;;;4.20;;
7263;SDS011;3673;52.480;13.348;2023-10-09T07:41:41;6.68;;;4.38;;
7263;SDS011;3673;52.480;13.348;2023-10-09T07:44:21;10.25;;;5.38;;
7263;SDS011;3673;52.480;13.348;2023-10-09T07:47:02;6.90;;;3.75;;
7263;SDS011;3673;52.480;13.348;2023-10-09T07:49:47;5.07;;;3.65;;
7263;SDS011;3673;52.480;13.348;2023-10-09T07:52:18;7.75;;;3.85;;
7263;SDS011;3673;52.480;13.348;2023-10-09T07:54:48;6.25;;;3.42;;
7263;SDS011;3673;52.480;13.348;2023-10-09T07:57:28;7.28;;;3.63;;
7263;SDS011;3673;52.480;13.348;2023-10-09T08:00:03;7.25;;;3.90;;
7263;SDS011;3673;52.480;13.348;2023-10-09T08:02:58;9.82;;;2.92;;
7263;SDS011;3673;52.480;13.348;2023-10-09T08:05:27;6.20;;;3.28;;
7263;SDS011;3673;52.480;13.348;2023-10-09T08:08:00;5.85;;;3.60;;
7263;SDS011;3673;52.480;13.348;2023-10-09T08:11:04;7.60;;;3.58;;
7263;SDS011;3673;52.480;13.348;2023-10-09T08:14:00;5.05;;;3.10;;
7263;SDS011;3673;52.480;13.348;2023-10-09T08:16:27;7.90;;;4.45;;
7263;SDS011;3673;52.480;13.348;2023-10-09T08:19:01;5.35;;;3.42;;
7263;SDS011;3673;52.480;13.348;2023-10-09T08:21:45;9.60;;;4.85;;
7263;SDS011;3673;52.480;13.348;2023-10-09T08:24:33;10.05;;;4.45;;
7263;SDS011;3673;52.480;13.348;2023-10-09T08:27:06;6.55;;;4.05;;
7263;SDS011;3673;52.480;13.348;2023-10-09T08:29:50;6.72;;;3.50;;
7263;SDS011;3673;52.480;13.348;2023-10-09T08:32:37;8.23;;;3.97;;
7263;SDS011;3673;52.480;13.348;2023-10-09T08:35:04;7.53;;;3.67;;
7263;SDS011;3673;52.480;13.348;2023-10-09T08:37:44;9.02;;;4.07;;
7263;SDS011;3673;52.480;13.348;2023-10-09T08:40:15;10.38;;;4.28;;
7263;SDS011;3673;52.480;13.348;2023-10-09T08:42:46;6.25;;;4.15;;
7263;SDS011;3673;52.480;13.348;2023-10-09T08:45:19;7.43;;;3.40;;
7263;SDS011;3673;52.480;13.348;2023-10-09T08:47:52;5.70;;;3.90;;
7263;SDS011;3673;52.480;13.348;2023-10-09T08:50:20;5.60;;;3.35;;
7263;SDS011;3673;52.480;13.348;2023-10-09T08:52:47;9.77;;;4.47;;
7263;SDS011;3673;52.480;13.348;2023-10-09T08:55:17;6.47;;;3.55;;
7263;SDS011;3673;52.480;13.348;2023-10-09T08:57:44;6.85;;;3.90;;
7263;SDS011;3673;52.480;13.348;2023-10-09T09:00:16;8.75;;;4.22;;
7263;SDS011;3673;52.480;13.348;2023-10-09T09:02:46;7.50;;;4.00;;
7263;SDS011;3673;52.480;13.348;2023-10-09T09:05:17;6.80;;;4.03;;
7263;SDS011;3673;52.480;13.348;2023-10-09T09:07:45;7.13;;;4.95;;
7263;SDS011;3673;52.480;13.348;2023-10-09T09:10:13;7.85;;;3.80;;
7263;SDS011;3673;52.480;13.348;2023-10-09T09:12:44;10.25;;;3.42;;
7263;SDS011;3673;52.480;13.348;2023-10-09T09:15:13;8.70;;;3.85;;
7263;SDS011;3673;52.480;13.348;2023-10-09T09:17:45;6.43;;;3.95;;
7263;SDS011;3673;52.480;13.348;2023-10-09T09:20:21;6.78;;;4.18;;
7263;SDS011;3673;52.480;13.348;2023-10-09T09:22:55;9.30;;;4.50;;
7263;SDS011;3673;52.480;13.348;2023-10-09T09:25:22;6.28;;;3.47;;
7263;SDS011;3673;52.480;13.348;2023-10-09T09:27:52;6.28;;;4.30;;
7263;SDS011;3673;52.480;13.348;2023-10-09T09:30:23;4.72;;;3.20;;
7263;SDS011;3673;52.480;13.348;2023-10-09T09:32:58;6.65;;;3.78;;
7263;SDS011;3673;52.480;13.348;2023-10-09T09:35:55;7.35;;;3.83;;
7263;SDS011;3673;52.480;13.348;2023-10-09T09:38:24;5.38;;;3.42;;
7263;SDS011;3673;52.480;13.348;2023-10-09T09:40:54;5.53;;;3.85;;
7263;SDS011;3673;52.480;13.348;2023-10-09T09:43:28;5.75;;;4.32;;
7263;SDS011;3673;52.480;13.348;2023-10-09T09:46:00;5.70;;;3.83;;
7263;SDS011;3673;52.480;13.348;2023-10-09T09:48:32;6.28;;;4.57;;
7263;SDS011;3673;52.480;13.348;2023-10-09T09:51:09;5.35;;;4.00;;
7263;SDS011;3673;52.480;13.348;2023-10-09T09:53:38;8.05;;;3.67;;
7263;SDS011;3673;52.480;13.348;2023-10-09T09:56:05;7.88;;;5.47;;
7263;SDS011;3673;52.480;13.348;2023-10-09T09:58:39;6.72;;;4.88;;
7263;SDS011;3673;52.480;13.348;2023-10-09T10:01:09;6.32;;;4.07;;
7263;SDS011;3673;52.480;13.348;2023-10-09T10:03:42;5.60;;;4.10;;
7263;SDS011;3673;52.480;13.348;2023-10-09T10:06:13;4.63;;;4.05;;
7263;SDS011;3673;52.480;13.348;2023-10-09T10:08:44;7.70;;;5.22;;
7263;SDS011;3673;52.480;13.348;2023-10-09T10:14:11;7.72;;;4.75;;
7263;SDS011;3673;52.480;13.348;2023-10-09T10:17:05;7.95;;;5.53;;
7263;SDS011;3673;52.480;13.348;2023-10-09T10:20:04;6.15;;;4.75;;
7263;SDS011;3673;52.480;13.348;2023-10-09T10:22:47;10.10;;;6.20;;
7263;SDS011;3673;52.480;13.348;2023-10-09T10:28:16;9.10;;;6.80;;
7263;SDS011;3673;52.480;13.348;2023-10-09T10:31:08;13.35;;;7.00;;
7263;SDS011;3673;52.480;13.348;2023-10-09T10:36:35;8.50;;;6.38;;
7263;SDS011;3673;52.480;13.348;2023-10-09T10:39:07;10.27;;;6.30;;
7263;SDS011;3673;52.480;13.348;2023-10-09T10:41:36;6.88;;;5.47;;
7263;SDS011;3673;52.480;13.348;2023-10-09T10:44:15;8.63;;;5.97;;
7263;SDS011;3673;52.480;13.348;2023-10-09T10:47:02;6.22;;;5.57;;
7263;SDS011;3673;52.480;13.348;2023-10-09T10:49:31;9.20;;;5.57;;
7263;SDS011;3673;52.480;13.348;2023-10-09T10:52:02;8.40;;;5.82;;
7263;SDS011;3673;52.480;13.348;2023-10-09T10:54:41;6.25;;;5.38;;
7263;SDS011;3673;52.480;13.348;2023-10-09T10:57:34;9.32;;;5.97;;
7263;SDS011;3673;52.480;13.348;2023-10-09T11:00:18;7.18;;;6.07;;
7263;SDS011;3673;52.480;13.348;2023-10-09T11:03:04;7.07;;;6.00;;
7263;SDS011;3673;52.480;13.348;2023-10-09T11:05:44;8.30;;;6.30;;
7263;SDS011;3673;52.480;13.348;2023-10-09T11:08:15;15.45;;;10.85;;
7263;SDS011;3673;52.480;13.348;2023-10-09T11:10:47;13.50;;;7.13;;
7263;SDS011;3673;52.480;13.348;2023-10-09T11:13:22;7.55;;;5.93;;
7263;SDS011;3673;52.480;13.348;2023-10-09T11:16:00;10.52;;;6.97;;
7263;SDS011;3673;52.480;13.348;2023-10-09T11:18:55;8.93;;;5.65;;
7263;SDS011;3673;52.480;13.348;2023-10-09T11:21:29;8.35;;;6.43;;
7263;SDS011;3673;52.480;13.348;2023-10-09T11:24:05;10.90;;;6.10;;
7263;SDS011;3673;52.480;13.348;2023-10-09T11:26:55;8.50;;;5.97;;
7263;SDS011;3673;52.480;13.348;2023-10-09T11:29:22;8.30;;;6.28;;
7263;SDS011;3673;52.480;13.348;2023-10-09T11:31:57;9.15;;;6.13;;
7263;SDS011;3673;52.480;13.348;2023-10-09T11:34:26;8.70;;;5.95;;
7263;SDS011;3673;52.480;13.348;2023-10-09T11:36:57;10.82;;;6.15;;
7263;SDS011;3673;52.480;13.348;2023-10-09T11:39:26;7.15;;;5.25;;
7263;SDS011;3673;52.480;13.348;2023-10-09T11:42:15;7.05;;;5.07;;
7263;SDS011;3673;52.480;13.348;2023-10-09T11:45:01;12.85;;;8.98;;
7263;SDS011;3673;52.480;13.348;2023-10-09T11:47:44;7.93;;;6.45;;
7263;SDS011;3673;52.480;13.348;2023-10-09T11:50:23;9.93;;;6.15;;
7263;SDS011;3673;52.480;13.348;2023-10-09T11:53:07;10.13;;;7.30;;
7263;SDS011;3673;52.480;13.348;2023-10-09T11:55:42;10.10;;;7.10;;
7263;SDS011;3673;52.480;13.348;2023-10-09T11:58:13;9.82;;;7.45;;
7263;SDS011;3673;52.480;13.348;2023-10-09T12:00:47;9.85;;;7.03;;
7263;SDS011;3673;52.480;13.348;2023-10-09T12:03:16;9.82;;;6.88;;
7263;SDS011;3673;52.480;13.348;2023-10-09T12:05:49;9.27;;;6.63;;
7263;SDS011;3673;52.480;13.348;2023-10-09T12:08:18;17.13;;;9.20;;
7263;SDS011;3673;52.480;13.348;2023-10-09T12:10:47;9.80;;;7.20;;
7263;SDS011;3673;52.480;13.348;2023-10-09T12:13:14;8.90;;;7.88;;
7263;SDS011;3673;52.480;13.348;2023-10-09T12:15:41;9.45;;;7.10;;
7263;SDS011;3673;52.480;13.348;2023-10-09T12:18:11;8.55;;;6.20;;
7263;SDS011;3673;52.480;13.348;2023-10-09T12:20:41;8.70;;;5.35;;
7263;SDS011;3673;52.480;13.348;2023-10-09T12:23:16;7.00;;;5.78;;
7263;SDS011;3673;52.480;13.348;2023-10-09T12:25:44;9.30;;;5.95;;
7263;SDS011;3673;52.480;13.348;2023-10-09T12:28:11;6.97;;;5.57;;
7263;SDS011;3673;52.480;13.348;2023-10-09T12:30:38;8.18;;;6.95;;
7263;SDS011;3673;52.480;13.348;2023-10-09T12:33:07;7.00;;;6.03;;
7263;SDS011;3673;52.480;13.348;2023-10-09T12:35:38;7.10;;;6.15;;
7263;SDS011;3673;52.480;13.348;2023-10-09T12:38:06;12.10;;;8.48;;
7263;SDS011;3673;52.480;13.348;2023-10-09T12:40:36;8.15;;;6.53;;
7263;SDS011;3673;52.480;13.348;2023-10-09T12:43:06;10.85;;;7.53;;
7263;SDS011;3673;52.480;13.348;2023-10-09T12:45:40;8.75;;;7.68;;
7263;SDS011;3673;52.480;13.348;2023-10-09T12:48:07;10.90;;;7.80;;
7263;SDS011;3673;52.480;13.348;2023-10-09T12:50:34;11.20;;;8.23;;
7263;SDS011;3673;52.480;13.348;2023-10-09T12:53:06;8.85;;;7.63;;
7263;SDS011;3673;52.480;13.348;2023-10-09T12:55:36;10.43;;;7.93;;
7263;SDS011;3673;52.480;13.348;2023-10-09T12:58:05;11.35;;;8.55;;
7263;SDS011;3673;52.480;13.348;2023-10-09T13:00:34;10.32;;;7.78;;
7263;SDS011;3673;52.480;13.348;2023-10-09T13:03:05;9.80;;;7.50;;
7263;SDS011;3673;52.480;13.348;2023-10-09T13:08:17;11.32;;;8.30;;
7263;SDS011;3673;52.480;13.348;2023-10-09T13:10:47;14.43;;;9.43;;
7263;SDS011;3673;52.480;13.348;2023-10-09T13:16:01;14.82;;;9.02;;
7263;SDS011;3673;52.480;13.348;2023-10-09T13:18:31;12.82;;;10.00;;
7263;SDS011;3673;52.480;13.348;2023-10-09T13:20:57;10.27;;;8.68;;
7263;SDS011;3673;52.480;13.348;2023-10-09T13:23:28;13.43;;;9.55;;
7263;SDS011;3673;52.480;13.348;2023-10-09T13:26:04;12.40;;;9.13;;
7263;SDS011;3673;52.480;13.348;2023-10-09T13:28:43;10.00;;;8.15;;
7263;SDS011;3673;52.480;13.348;2023-10-09T13:31:15;10.20;;;8.68;;
7263;SDS011;3673;52.480;13.348;2023-10-09T13:33:43;12.45;;;9.45;;
7263;SDS011;3673;52.480;13.348;2023-10-09T13:36:11;13.85;;;8.85;;
7263;SDS011;3673;52.480;13.348;2023-10-09T13:38:44;10.23;;;9.05;;
7263;SDS011;3673;52.480;13.348;2023-10-09T13:41:13;12.93;;;8.20;;
7263;SDS011;3673;52.480;13.348;2023-10-09T13:43:42;9.70;;;7.95;;
7263;SDS011;3673;52.480;13.348;2023-10-09T13:46:09;8.63;;;7.55;;
7263;SDS011;3673;52.480;13.348;2023-10-09T13:48:37;9.80;;;7.65;;
7263;SDS011;3673;52.480;13.348;2023-10-09T13:51:08;10.88;;;7.30;;
7263;SDS011;3673;52.480;13.348;2023-10-09T13:53:39;13.55;;;8.18;;
7263;SDS011;3673;52.480;13.348;2023-10-09T13:56:12;10.40;;;8.43;;
7263;SDS011;3673;52.480;13.348;2023-10-09T13:58:44;8.90;;;7.68;;
7263;SDS011;3673;52.480;13.348;2023-10-09T14:01:12;8.80;;;7.90;;
7263;SDS011;3673;52.480;13.348;2023-10-09T14:03:51;10.35;;;7.68;;
7263;SDS011;3673;52.480;13.348;2023-10-09T14:06:23;11.32;;;8.48;;
7263;SDS011;3673;52.480;13.348;2023-10-09T14:08:56;22.88;;;16.15;;
7263;SDS011;3673;52.480;13.348;2023-10-09T14:11:26;9.95;;;8.95;;
7263;SDS011;3673;52.480;13.348;2023-10-09T14:13:53;12.95;;;8.32;;
7263;SDS011;3673;52.480;13.348;2023-10-09T14:16:20;11.38;;;9.63;;
7263;SDS011;3673;52.480;13.348;2023-10-09T14:18:54;11.15;;;9.02;;
7263;SDS011;3673;52.480;13.348;2023-10-09T14:21:24;12.07;;;9.75;;
7263;SDS011;3673;52.480;13.348;2023-10-09T14:23:54;12.70;;;10.23;;
7263;SDS011;3673;52.480;13.348;2023-10-09T14:26:24;12.73;;;9.50;;
7263;SDS011;3673;52.480;13.348;2023-10-09T14:28:54;15.05;;;11.60;;
7263;SDS011;3673;52.480;13.348;2023-10-09T14:31:23;13.18;;;10.75;;
7263;SDS011;3673;52.480;13.348;2023-10-09T14:33:53;14.25;;;9.95;;
7263;SDS011;3673;52.480;13.348;2023-10-09T14:36:21;11.75;;;9.52;;
7263;SDS011;3673;52.480;13.348;2023-10-09T14:38:50;11.77;;;8.52;;
7263;SDS011;3673;52.480;13.348;2023-10-09T14:41:19;13.48;;;9.60;;
7263;SDS011;3673;52.480;13.348;2023-10-09T14:43:50;11.60;;;10.30;;
7263;SDS011;3673;52.480;13.348;2023-10-09T14:46:17;12.77;;;8.63;;
7263;SDS011;3673;52.480;13.348;2023-10-09T14:48:50;10.82;;;8.57;;
7263;SDS011;3673;52.480;13.348;2023-10-09T14:51:18;13.95;;;9.98;;
7263;SDS011;3673;52.480;13.348;2023-10-09T14:53:51;13.18;;;9.23;;
7263;SDS011;3673;52.480;13.348;2023-10-09T14:56:22;11.02;;;8.65;;
7263;SDS011;3673;52.480;13.348;2023-10-09T14:58:55;11.95;;;8.38;;
7263;SDS011;3673;52.480;13.348;2023-10-09T15:01:23;10.90;;;8.43;;
7263;SDS011;3673;52.480;13.348;2023-10-09T15:03:53;8.38;;;7.38;;
7263;SDS011;3673;52.480;13.348;2023-10-09T15:06:24;10.02;;;8.65;;
7263;SDS011;3673;52.480;13.348;2023-10-09T15:08:55;12.52;;;9.60;;
7263;SDS011;3673;52.480;13.348;2023-10-09T15:11:22;20.15;;;11.52;;
7263;SDS011;3673;52.480;13.348;2023-10-09T15:13:50;11.18;;;9.05;;
7263;SDS011;3673;52.480;13.348;2023-10-09T15:16:19;9.80;;;8.30;;
7263;SDS011;3673;52.480;13.348;2023-10-09T15:18:51;9.90;;;8.20;;
7263;SDS011;3673;52.480;13.348;2023-10-09T15:21:22;11.73;;;8.63;;
7263;SDS011;3673;52.480;13.348;2023-10-09T15:23:51;11.00;;;7.63;;
7263;SDS011;3673;52.480;13.348;2023-10-09T15:26:19;10.15;;;7.78;;
7263;SDS011;3673;52.480;13.348;2023-10-09T15:28:46;11.68;;;8.88;;
7263;SDS011;3673;52.480;13.348;2023-10-09T15:31:14;10.63;;;7.88;;
7263;SDS011;3673;52.480;13.348;2023-10-09T15:33:42;13.13;;;9.20;;
7263;SDS011;3673;52.480;13.348;2023-10-09T15:36:10;13.90;;;10.35;;
7263;SDS011;3673;52.480;13.348;2023-10-09T15:38:38;13.48;;;8.13;;
7263;SDS011;3673;52.480;13.348;2023-10-09T15:41:05;11.68;;;8.27;;
7263;SDS011;3673;52.480;13.348;2023-10-09T15:43:32;10.55;;;8.68;;
7263;SDS011;3673;52.480;13.348;2023-10-09T15:45:59;10.30;;;7.40;;
7263;SDS011;3673;52.480;13.348;2023-10-09T15:48:26;14.35;;;8.38;;
7263;SDS011;3673;52.480;13.348;2023-10-09T15:50:54;10.55;;;8.57;;
7263;SDS011;3673;52.480;13.348;2023-10-09T15:53:22;10.27;;;7.93;;
7263;SDS011;3673;52.480;13.348;2023-10-09T15:55:49;9.40;;;7.93;;
7263;SDS011;3673;52.480;13.348;2023-10-09T15:58:22;10.63;;;8.25;;